sensor_id;sensor_type;location;lat;lon;timestamp;P1;durP1;ratioP1;P2;durP2;ratioP2
6642;SDS011;3357;48.050;7.800;2023-07-20T00:02:07;7.40;;;2.20;;
6642;SDS011;3357;48.050;7.800;2023-07-20T00:04:33;4.73;;;2.47;;
6642;SDS011;3357;48.050;7.800;2023-07-20T00:06:58;1.83;;;1.73;;
6642;SDS011;3357;48.050;7.800;2023-07-20T00:09:25;2.60;;;2.00;;
6642;SDS011;3357;48.050;7.800;2023-07-20T00:11:51;4.10;;;2.23;;
6642;SDS011;3357;48.050;7.800;2023-07-20T00:14:17;2.57;;;1.60;;
6642;SDS011;3357;48.050;7.800;2023-07-20T00:16:43;3.30;;;2.00;;
6642;SDS011;3357;48.050;7.800;2023-07-20T00:19:08;3.30;;;2.37;;
6642;SDS011;3357;48.050;7.800;2023-07-20T00:21:34;5.10;;;2.47;;
6642;SDS011;3357;48.050;7.800;2023-07-20T00:23:59;1.77;;;1.67;;
6642;SDS011;3357;48.050;7.800;2023-07-20T00:26:24;5.20;;;2.30;;
6642;SDS011;3357;48.050;7.800;2023-07-20T00:28:49;9.97;;;3.30;;
6642;SDS011;3357;48.050;7.800;2023-07-20T00:31:15;4.87;;;2.23;;
6642;SDS011;3357;48.050;7.800;2023-07-20T00:33:40;2.53;;;2.33;;
6642;SDS011;3357;48.050;7.800;2023-07-20T00:36:06;2.80;;;1.73;;
6642;SDS011;3357;48.050;7.800;2023-07-20T00:38:31;3.57;;;2.20;;
6642;SDS011;3357;48.050;7.800;2023-07-20T00:40:56;2.50;;;2.30;;
6642;SDS011;3357;48.050;7.800;2023-07-20T00:43:22;3.20;;;2.00;;
6642;SDS011;3357;48.050;7.800;2023-07-20T00:45:47;2.93;;;2.07;;
6642;SDS011;3357;48.050;7.800;2023-07-20T00:48:13;3.30;;;2.33;;
6642;SDS011;3357;48.050;7.800;2023-07-20T00:50:39;3.17;;;2.07;;
6642;SDS011;3357;48.050;7.800;2023-07-20T00:53:04;3.33;;;2.87;;
6642;SDS011;3357;48.050;7.800;2023-07-20T00:55:30;2.80;;;2.23;;
6642;SDS011;3357;48.050;7.800;2023-07-20T00:57:56;3.60;;;2.60;;
6642;SDS011;3357;48.050;7.800;2023-07-20T01:00:22;3.60;;;2.03;;
6642;SDS011;3357;48.050;7.800;2023-07-20T01:02:48;6.33;;;2.37;;
6642;SDS011;3357;48.050;7.800;2023-07-20T01:05:13;2.27;;;2.07;;
6642;SDS011;3357;48.050;7.800;2023-07-20T01:07:43;3.10;;;2.40;;
6642;SDS011;3357;48.050;7.800;2023-07-20T01:10:14;1.93;;;1.77;;
6642;SDS011;3357;48.050;7.800;2023-07-20T01:12:43;2.00;;;1.90;;
6642;SDS011;3357;48.050;7.800;2023-07-20T01:15:12;4.80;;;2.10;;
6642;SDS011;3357;48.050;7.800;2023-07-20T01:17:37;3.03;;;2.17;;
6642;SDS011;3357;48.050;7.800;2023-07-20T01:20:02;2.73;;;1.80;;
6642;SDS011;3357;48.050;7.800;2023-07-20T01:34:29;4.70;;;2.43;;
6642;SDS011;3357;48.050;7.800;2023-07-20T01:36:54;2.00;;;1.80;;
6642;SDS011;3357;48.050;7.800;2023-07-20T01:39:20;4.17;;;1.93;;
6642;SDS011;3357;48.050;7.800;2023-07-20T01:41:46;2.20;;;2.10;;
6642;SDS011;3357;48.050;7.800;2023-07-20T01:44:12;5.13;;;2.33;;
6642;SDS011;3357;48.050;7.800;2023-07-20T01:46:37;2.60;;;2.27;;
6642;SDS011;3357;48.050;7.800;2023-07-20T01:49:03;5.43;;;2.77;;
6642;SDS011;3357;48.050;7.800;2023-07-20T01:51:28;6.73;;;2.07;;
6642;SDS011;3357;48.050;7.800;2023-07-20T01:53:53;2.03;;;1.93;;
6642;SDS011;3357;48.050;7.800;2023-07-20T01:56:19;4.67;;;2.30;;
6642;SDS011;3357;48.050;7.800;2023-07-20T01:58:44;5.50;;;2.43;;
6642;SDS011;3357;48.050;7.800;2023-07-20T02:01:10;2.20;;;2.10;;
6642;SDS011;3357;48.050;7.800;2023-07-20T02:03:35;3.60;;;1.83;;
6642;SDS011;3357;48.050;7.800;2023-07-20T02:06:00;5.70;;;1.93;;
6642;SDS011;3357;48.050;7.800;2023-07-20T02:08:26;9.20;;;1.87;;
6642;SDS011;3357;48.050;7.800;2023-07-20T02:10:51;4.57;;;2.00;;
6642;SDS011;3357;48.050;7.800;2023-07-20T02:13:16;6.60;;;2.10;;
6642;SDS011;3357;48.050;7.800;2023-07-20T02:15:42;5.83;;;2.40;;
6642;SDS011;3357;48.050;7.800;2023-07-20T02:18:07;3.53;;;1.97;;
6642;SDS011;3357;48.050;7.800;2023-07-20T02:20:33;3.20;;;2.23;;
6642;SDS011;3357;48.050;7.800;2023-07-20T02:22:58;4.03;;;2.30;;
6642;SDS011;3357;48.050;7.800;2023-07-20T02:25:23;3.97;;;3.40;;
6642;SDS011;3357;48.050;7.800;2023-07-20T02:27:48;7.33;;;2.20;;
6642;SDS011;3357;48.050;7.800;2023-07-20T02:30:14;1.97;;;1.87;;
6642;SDS011;3357;48.050;7.800;2023-07-20T02:32:41;1.60;;;1.50;;
6642;SDS011;3357;48.050;7.800;2023-07-20T02:35:10;5.77;;;2.10;;
6642;SDS011;3357;48.050;7.800;2023-07-20T02:37:36;8.80;;;2.17;;
6642;SDS011;3357;48.050;7.800;2023-07-20T02:40:01;2.87;;;2.03;;
6642;SDS011;3357;48.050;7.800;2023-07-20T02:42:29;1.97;;;1.87;;
6642;SDS011;3357;48.050;7.800;2023-07-20T02:44:54;5.30;;;2.53;;
6642;SDS011;3357;48.050;7.800;2023-07-20T02:47:19;3.23;;;2.13;;
6642;SDS011;3357;48.050;7.800;2023-07-20T02:49:44;4.63;;;2.13;;
6642;SDS011;3357;48.050;7.800;2023-07-20T02:52:10;2.93;;;1.90;;
6642;SDS011;3357;48.050;7.800;2023-07-20T02:54:35;4.30;;;2.70;;
6642;SDS011;3357;48.050;7.800;2023-07-20T02:57:00;4.70;;;2.30;;
6642;SDS011;3357;48.050;7.800;2023-07-20T02:59:26;5.33;;;2.20;;
6642;SDS011;3357;48.050;7.800;2023-07-20T03:01:51;2.33;;;1.90;;
6642;SDS011;3357;48.050;7.800;2023-07-20T03:04:16;2.70;;;2.07;;
6642;SDS011;3357;48.050;7.800;2023-07-20T03:06:42;3.87;;;2.23;;
6642;SDS011;3357;48.050;7.800;2023-07-20T03:09:07;2.33;;;2.13;;
6642;SDS011;3357;48.050;7.800;2023-07-20T03:11:34;4.50;;;2.23;;
6642;SDS011;3357;48.050;7.800;2023-07-20T03:13:59;9.37;;;2.37;;
6642;SDS011;3357;48.050;7.800;2023-07-20T03:16:24;3.43;;;1.97;;
6642;SDS011;3357;48.050;7.800;2023-07-20T03:18:50;5.00;;;2.03;;
6642;SDS011;3357;48.050;7.800;2023-07-20T03:21:15;2.20;;;2.00;;
6642;SDS011;3357;48.050;7.800;2023-07-20T03:23:41;2.30;;;2.10;;
6642;SDS011;3357;48.050;7.800;2023-07-20T03:26:06;2.90;;;2.60;;
6642;SDS011;3357;48.050;7.800;2023-07-20T03:28:35;3.60;;;2.20;;
6642;SDS011;3357;48.050;7.800;2023-07-20T03:31:01;3.73;;;2.20;;
6642;SDS011;3357;48.050;7.800;2023-07-20T03:33:26;3.70;;;2.40;;
6642;SDS011;3357;48.050;7.800;2023-07-20T03:35:53;3.00;;;2.30;;
6642;SDS011;3357;48.050;7.800;2023-07-20T03:38:19;2.07;;;1.90;;
6642;SDS011;3357;48.050;7.800;2023-07-20T03:40:55;6.00;;;2.07;;
6642;SDS011;3357;48.050;7.800;2023-07-20T03:43:21;7.53;;;2.47;;
6642;SDS011;3357;48.050;7.800;2023-07-20T03:45:47;4.80;;;2.27;;
6642;SDS011;3357;48.050;7.800;2023-07-20T03:48:13;3.00;;;2.67;;
6642;SDS011;3357;48.050;7.800;2023-07-20T03:50:40;7.07;;;2.47;;
6642;SDS011;3357;48.050;7.800;2023-07-20T03:53:05;4.60;;;2.83;;
6642;SDS011;3357;48.050;7.800;2023-07-20T03:55:30;2.80;;;2.53;;
6642;SDS011;3357;48.050;7.800;2023-07-20T03:57:55;3.20;;;2.90;;
6642;SDS011;3357;48.050;7.800;2023-07-20T04:00:21;2.33;;;2.13;;
6642;SDS011;3357;48.050;7.800;2023-07-20T04:02:46;4.47;;;2.20;;
6642;SDS011;3357;48.050;7.800;2023-07-20T04:05:11;3.20;;;2.27;;
6642;SDS011;3357;48.050;7.800;2023-07-20T04:07:37;4.60;;;2.50;;
6642;SDS011;3357;48.050;7.800;2023-07-20T04:10:02;2.63;;;2.43;;
6642;SDS011;3357;48.050;7.800;2023-07-20T04:12:27;6.27;;;2.53;;
6642;SDS011;3357;48.050;7.800;2023-07-20T04:14:53;4.30;;;2.87;;
6642;SDS011;3357;48.050;7.800;2023-07-20T04:17:18;2.70;;;2.50;;
6642;SDS011;3357;48.050;7.800;2023-07-20T04:19:43;7.63;;;2.40;;
6642;SDS011;3357;48.050;7.800;2023-07-20T04:22:09;5.03;;;2.40;;
6642;SDS011;3357;48.050;7.800;2023-07-20T04:24:34;22.27;;;2.70;;
6642;SDS011;3357;48.050;7.800;2023-07-20T04:26:59;3.90;;;2.63;;
6642;SDS011;3357;48.050;7.800;2023-07-20T04:29:25;4.97;;;2.17;;
6642;SDS011;3357;48.050;7.800;2023-07-20T04:31:50;7.63;;;2.60;;
6642;SDS011;3357;48.050;7.800;2023-07-20T04:34:16;3.63;;;2.60;;
6642;SDS011;3357;48.050;7.800;2023-07-20T04:36:41;6.40;;;2.90;;
6642;SDS011;3357;48.050;7.800;2023-07-20T04:39:06;3.03;;;2.73;;
6642;SDS011;3357;48.050;7.800;2023-07-20T04:41:33;3.90;;;2.53;;
6642;SDS011;3357;48.050;7.800;2023-07-20T04:43:59;3.00;;;2.77;;
6642;SDS011;3357;48.050;7.800;2023-07-20T04:46:24;3.60;;;2.90;;
6642;SDS011;3357;48.050;7.800;2023-07-20T04:48:49;2.80;;;2.60;;
6642;SDS011;3357;48.050;7.800;2023-07-20T04:51:15;13.13;;;3.23;;
6642;SDS011;3357;48.050;7.800;2023-07-20T04:53:42;3.43;;;2.70;;
6642;SDS011;3357;48.050;7.800;2023-07-20T04:56:07;2.57;;;2.37;;
6642;SDS011;3357;48.050;7.800;2023-07-20T04:58:33;3.30;;;2.43;;
6642;SDS011;3357;48.050;7.800;2023-07-20T05:00:58;2.60;;;2.30;;
6642;SDS011;3357;48.050;7.800;2023-07-20T05:03:23;3.80;;;3.07;;
6642;SDS011;3357;48.050;7.800;2023-07-20T05:05:49;2.97;;;2.77;;
6642;SDS011;3357;48.050;7.800;2023-07-20T05:08:14;8.80;;;2.70;;
6642;SDS011;3357;48.050;7.800;2023-07-20T05:10:39;6.07;;;2.57;;
6642;SDS011;3357;48.050;7.800;2023-07-20T05:13:04;4.07;;;2.03;;
6642;SDS011;3357;48.050;7.800;2023-07-20T05:15:32;5.63;;;2.60;;
6642;SDS011;3357;48.050;7.800;2023-07-20T05:17:58;3.50;;;2.77;;
6642;SDS011;3357;48.050;7.800;2023-07-20T05:20:23;6.30;;;3.03;;
6642;SDS011;3357;48.050;7.800;2023-07-20T05:22:48;5.50;;;2.77;;
6642;SDS011;3357;48.050;7.800;2023-07-20T05:25:14;2.80;;;2.30;;
6642;SDS011;3357;48.050;7.800;2023-07-20T05:27:42;8.93;;;2.90;;
6642;SDS011;3357;48.050;7.800;2023-07-20T05:30:08;3.03;;;2.70;;
6642;SDS011;3357;48.050;7.800;2023-07-20T05:32:33;5.13;;;2.83;;
6642;SDS011;3357;48.050;7.800;2023-07-20T05:34:59;5.13;;;2.40;;
6642;SDS011;3357;48.050;7.800;2023-07-20T05:37:24;8.17;;;2.37;;
6642;SDS011;3357;48.050;7.800;2023-07-20T05:39:49;4.70;;;2.80;;
6642;SDS011;3357;48.050;7.800;2023-07-20T05:42:15;2.43;;;2.23;;
6642;SDS011;3357;48.050;7.800;2023-07-20T05:44:40;6.70;;;2.80;;
6642;SDS011;3357;48.050;7.800;2023-07-20T05:47:06;3.97;;;2.50;;
6642;SDS011;3357;48.050;7.800;2023-07-20T05:49:31;5.07;;;2.20;;
6642;SDS011;3357;48.050;7.800;2023-07-20T05:51:56;2.30;;;2.10;;
6642;SDS011;3357;48.050;7.800;2023-07-20T05:54:23;5.77;;;2.43;;
6642;SDS011;3357;48.050;7.800;2023-07-20T05:56:49;3.77;;;2.20;;
6642;SDS011;3357;48.050;7.800;2023-07-20T05:59:14;4.00;;;2.37;;
6642;SDS011;3357;48.050;7.800;2023-07-20T06:01:40;4.47;;;2.53;;
6642;SDS011;3357;48.050;7.800;2023-07-20T06:04:05;2.50;;;2.27;;
6642;SDS011;3357;48.050;7.800;2023-07-20T06:06:30;9.33;;;2.53;;
6642;SDS011;3357;48.050;7.800;2023-07-20T06:08:55;2.80;;;2.50;;
6642;SDS011;3357;48.050;7.800;2023-07-20T06:11:21;3.50;;;2.67;;
6642;SDS011;3357;48.050;7.800;2023-07-20T06:13:46;7.63;;;2.73;;
6642;SDS011;3357;48.050;7.800;2023-07-20T06:16:11;2.60;;;2.40;;
6642;SDS011;3357;48.050;7.800;2023-07-20T06:18:36;3.47;;;2.57;;
6642;SDS011;3357;48.050;7.800;2023-07-20T06:21:02;3.27;;;2.73;;
6642;SDS011;3357;48.050;7.800;2023-07-20T06:23:27;2.70;;;1.80;;
6642;SDS011;3357;48.050;7.800;2023-07-20T06:25:52;4.70;;;2.87;;
6642;SDS011;3357;48.050;7.800;2023-07-20T06:28:18;5.20;;;2.40;;
6642;SDS011;3357;48.050;7.800;2023-07-20T06:30:43;2.73;;;2.33;;
6642;SDS011;3357;48.050;7.800;2023-07-20T06:33:08;5.27;;;2.13;;
6642;SDS011;3357;48.050;7.800;2023-07-20T06:35:34;2.33;;;1.80;;
6642;SDS011;3357;48.050;7.800;2023-07-20T06:38:00;3.23;;;2.10;;
6642;SDS011;3357;48.050;7.800;2023-07-20T06:40:26;3.13;;;1.90;;
6642;SDS011;3357;48.050;7.800;2023-07-20T06:42:51;2.63;;;2.20;;
6642;SDS011;3357;48.050;7.800;2023-07-20T06:45:16;9.47;;;2.43;;
6642;SDS011;3357;48.050;7.800;2023-07-20T06:47:42;2.20;;;2.10;;
6642;SDS011;3357;48.050;7.800;2023-07-20T06:50:07;3.20;;;2.30;;
6642;SDS011;3357;48.050;7.800;2023-07-20T06:52:33;2.90;;;2.10;;
6642;SDS011;3357;48.050;7.800;2023-07-20T06:54:58;5.80;;;2.10;;
6642;SDS011;3357;48.050;7.800;2023-07-20T06:57:24;3.03;;;2.77;;
6642;SDS011;3357;48.050;7.800;2023-07-20T06:59:50;3.77;;;2.00;;
6642;SDS011;3357;48.050;7.800;2023-07-20T07:02:15;6.63;;;2.27;;
6642;SDS011;3357;48.050;7.800;2023-07-20T07:04:41;5.50;;;2.50;;
6642;SDS011;3357;48.050;7.800;2023-07-20T07:07:07;2.27;;;1.90;;
6642;SDS011;3357;48.050;7.800;2023-07-20T07:09:32;2.97;;;2.40;;
6642;SDS011;3357;48.050;7.800;2023-07-20T07:11:57;2.07;;;1.87;;
6642;SDS011;3357;48.050;7.800;2023-07-20T07:14:22;3.90;;;2.20;;
6642;SDS011;3357;48.050;7.800;2023-07-20T07:16:48;2.30;;;2.10;;
6642;SDS011;3357;48.050;7.800;2023-07-20T07:19:13;7.33;;;2.87;;
6642;SDS011;3357;48.050;7.800;2023-07-20T07:21:38;3.13;;;2.53;;
6642;SDS011;3357;48.050;7.800;2023-07-20T07:24:04;4.23;;;1.90;;
6642;SDS011;3357;48.050;7.800;2023-07-20T07:26:31;8.40;;;2.60;;
6642;SDS011;3357;48.050;7.800;2023-07-20T07:28:57;5.63;;;2.33;;
6642;SDS011;3357;48.050;7.800;2023-07-20T07:31:22;2.47;;;2.27;;
6642;SDS011;3357;48.050;7.800;2023-07-20T07:33:48;2.87;;;2.10;;
6642;SDS011;3357;48.050;7.800;2023-07-20T07:36:13;5.73;;;2.67;;
6642;SDS011;3357;48.050;7.800;2023-07-20T07:38:38;4.23;;;2.73;;
6642;SDS011;3357;48.050;7.800;2023-07-20T07:41:04;3.57;;;2.10;;
6642;SDS011;3357;48.050;7.800;2023-07-20T07:43:29;6.23;;;2.60;;
6642;SDS011;3357;48.050;7.800;2023-07-20T07:45:54;3.67;;;2.50;;
6642;SDS011;3357;48.050;7.800;2023-07-20T07:48:20;4.40;;;2.70;;
6642;SDS011;3357;48.050;7.800;2023-07-20T07:50:47;4.03;;;2.27;;
6642;SDS011;3357;48.050;7.800;2023-07-20T07:53:12;6.43;;;2.47;;
6642;SDS011;3357;48.050;7.800;2023-07-20T07:55:37;6.93;;;2.93;;
6642;SDS011;3357;48.050;7.800;2023-07-20T07:58:03;4.50;;;2.37;;
6642;SDS011;3357;48.050;7.800;2023-07-20T08:00:28;7.60;;;2.10;;
6642;SDS011;3357;48.050;7.800;2023-07-20T08:02:53;4.30;;;2.30;;
6642;SDS011;3357;48.050;7.800;2023-07-20T08:05:18;2.73;;;2.10;;
6642;SDS011;3357;48.050;7.800;2023-07-20T08:07:44;15.97;;;3.30;;
6642;SDS011;3357;48.050;7.800;2023-07-20T08:10:10;2.90;;;2.23;;
6642;SDS011;3357;48.050;7.800;2023-07-20T08:12:35;3.37;;;2.30;;
6642;SDS011;3357;48.050;7.800;2023-07-20T08:15:00;3.07;;;2.43;;
6642;SDS011;3357;48.050;7.800;2023-07-20T08:17:26;5.40;;;2.60;;
6642;SDS011;3357;48.050;7.800;2023-07-20T08:19:51;2.33;;;2.10;;
6642;SDS011;3357;48.050;7.800;2023-07-20T08:22:16;4.57;;;2.40;;
6642;SDS011;3357;48.050;7.800;2023-07-20T08:24:42;4.70;;;2.10;;
6642;SDS011;3357;48.050;7.800;2023-07-20T08:27:08;9.57;;;2.40;;
6642;SDS011;3357;48.050;7.800;2023-07-20T08:29:34;6.53;;;2.47;;
6642;SDS011;3357;48.050;7.800;2023-07-20T08:32:00;3.63;;;2.23;;
6642;SDS011;3357;48.050;7.800;2023-07-20T08:34:25;4.53;;;2.77;;
6642;SDS011;3357;48.050;7.800;2023-07-20T08:36:50;1.80;;;1.70;;
6642;SDS011;3357;48.050;7.800;2023-07-20T08:39:15;3.10;;;2.03;;
6642;SDS011;3357;48.050;7.800;2023-07-20T08:41:42;14.47;;;2.50;;
6642;SDS011;3357;48.050;7.800;2023-07-20T08:44:07;9.40;;;2.43;;
6642;SDS011;3357;48.050;7.800;2023-07-20T08:46:33;8.57;;;2.60;;
6642;SDS011;3357;48.050;7.800;2023-07-20T08:49:00;10.23;;;2.63;;
6642;SDS011;3357;48.050;7.800;2023-07-20T08:51:27;4.43;;;2.20;;
6642;SDS011;3357;48.050;7.800;2023-07-20T08:53:52;2.10;;;1.73;;
6642;SDS011;3357;48.050;7.800;2023-07-20T08:56:17;2.30;;;1.67;;
6642;SDS011;3357;48.050;7.800;2023-07-20T08:58:45;3.53;;;1.80;;
6642;SDS011;3357;48.050;7.800;2023-07-20T09:01:11;2.33;;;1.90;;
6642;SDS011;3357;48.050;7.800;2023-07-20T09:03:36;2.20;;;2.07;;
6642;SDS011;3357;48.050;7.800;2023-07-20T09:06:05;3.00;;;2.30;;
6642;SDS011;3357;48.050;7.800;2023-07-20T09:08:31;5.60;;;2.70;;
6642;SDS011;3357;48.050;7.800;2023-07-20T09:10:56;2.50;;;2.10;;
6642;SDS011;3357;48.050;7.800;2023-07-20T09:13:21;5.70;;;2.27;;
6642;SDS011;3357;48.050;7.800;2023-07-20T09:15:47;3.03;;;2.00;;
6642;SDS011;3357;48.050;7.800;2023-07-20T09:18:27;3.17;;;2.10;;
6642;SDS011;3357;48.050;7.800;2023-07-20T09:21:03;2.03;;;1.73;;
6642;SDS011;3357;48.050;7.800;2023-07-20T09:23:33;5.50;;;2.30;;
6642;SDS011;3357;48.050;7.800;2023-07-20T09:26:00;6.03;;;2.17;;
6642;SDS011;3357;48.050;7.800;2023-07-20T09:28:25;1.97;;;1.77;;
6642;SDS011;3357;48.050;7.800;2023-07-20T09:30:51;1.93;;;1.73;;
6642;SDS011;3357;48.050;7.800;2023-07-20T09:33:22;5.73;;;2.53;;
6642;SDS011;3357;48.050;7.800;2023-07-20T09:35:48;1.97;;;1.77;;
6642;SDS011;3357;48.050;7.800;2023-07-20T09:38:14;4.20;;;1.73;;
6642;SDS011;3357;48.050;7.800;2023-07-20T09:40:39;2.90;;;2.00;;
6642;SDS011;3357;48.050;7.800;2023-07-20T09:43:07;2.93;;;1.63;;
6642;SDS011;3357;48.050;7.800;2023-07-20T09:45:33;2.93;;;1.90;;
6642;SDS011;3357;48.050;7.800;2023-07-20T09:48:09;1.90;;;1.70;;
6642;SDS011;3357;48.050;7.800;2023-07-20T09:50:42;2.57;;;1.50;;
6642;SDS011;3357;48.050;7.800;2023-07-20T09:53:09;1.97;;;1.30;;
6642;SDS011;3357;48.050;7.800;2023-07-20T09:55:37;3.63;;;2.20;;
6642;SDS011;3357;48.050;7.800;2023-07-20T09:58:03;1.67;;;1.57;;
6642;SDS011;3357;48.050;7.800;2023-07-20T10:00:28;1.40;;;1.30;;
6642;SDS011;3357;48.050;7.800;2023-07-20T10:02:54;1.73;;;1.63;;
6642;SDS011;3357;48.050;7.800;2023-07-20T10:05:21;2.70;;;1.80;;
6642;SDS011;3357;48.050;7.800;2023-07-20T10:07:47;2.73;;;1.60;;
6642;SDS011;3357;48.050;7.800;2023-07-20T10:10:16;2.17;;;1.90;;
6642;SDS011;3357;48.050;7.800;2023-07-20T10:12:43;4.60;;;1.50;;
6642;SDS011;3357;48.050;7.800;2023-07-20T10:18:17;2.57;;;2.27;;
6642;SDS011;3357;48.050;7.800;2023-07-20T10:20:46;2.40;;;1.50;;
6642;SDS011;3357;48.050;7.800;2023-07-20T10:23:12;2.63;;;1.70;;
6642;SDS011;3357;48.050;7.800;2023-07-20T10:25:37;2.50;;;1.43;;
6642;SDS011;3357;48.050;7.800;2023-07-20T10:28:06;7.00;;;1.80;;
6642;SDS011;3357;48.050;7.800;2023-07-20T10:30:35;1.90;;;1.80;;
6642;SDS011;3357;48.050;7.800;2023-07-20T10:33:02;3.13;;;1.90;;
6642;SDS011;3357;48.050;7.800;2023-07-20T10:35:27;2.50;;;1.43;;
6642;SDS011;3357;48.050;7.800;2023-07-20T10:37:53;3.37;;;1.67;;
6642;SDS011;3357;48.050;7.800;2023-07-20T10:40:38;4.30;;;2.03;;
6642;SDS011;3357;48.050;7.800;2023-07-20T10:43:07;1.93;;;1.43;;
6642;SDS011;3357;48.050;7.800;2023-07-20T10:45:34;1.40;;;1.30;;
6642;SDS011;3357;48.050;7.800;2023-07-20T10:48:07;2.17;;;2.00;;
6642;SDS011;3357;48.050;7.800;2023-07-20T10:50:38;4.60;;;1.90;;
6642;SDS011;3357;48.050;7.800;2023-07-20T10:56:27;2.40;;;1.70;;
6642;SDS011;3357;48.050;7.800;2023-07-20T10:58:58;4.30;;;1.70;;
6642;SDS011;3357;48.050;7.800;2023-07-20T11:01:27;3.40;;;1.60;;
6642;SDS011;3357;48.050;7.800;2023-07-20T11:03:56;11.90;;;2.00;;
6642;SDS011;3357;48.050;7.800;2023-07-20T11:08:55;2.63;;;1.67;;
6642;SDS011;3357;48.050;7.800;2023-07-20T11:11:37;1.50;;;1.40;;
6642;SDS011;3357;48.050;7.800;2023-07-20T11:14:04;1.63;;;1.53;;
6642;SDS011;3357;48.050;7.800;2023-07-20T11:18:58;2.80;;;1.97;;
6642;SDS011;3357;48.050;7.800;2023-07-20T11:21:24;4.00;;;1.50;;
6642;SDS011;3357;48.050;7.800;2023-07-20T11:23:49;1.43;;;1.33;;
6642;SDS011;3357;48.050;7.800;2023-07-20T11:26:16;1.80;;;1.70;;
6642;SDS011;3357;48.050;7.800;2023-07-20T11:28:41;3.30;;;1.87;;
6642;SDS011;3357;48.050;7.800;2023-07-20T11:31:07;2.40;;;2.00;;
6642;SDS011;3357;48.050;7.800;2023-07-20T11:33:32;3.90;;;1.50;;
6642;SDS011;3357;48.050;7.800;2023-07-20T11:35:57;4.20;;;1.50;;
6642;SDS011;3357;48.050;7.800;2023-07-20T11:38:23;4.60;;;1.40;;
6642;SDS011;3357;48.050;7.800;2023-07-20T11:40:49;3.30;;;1.60;;
6642;SDS011;3357;48.050;7.800;2023-07-20T11:43:14;2.90;;;1.40;;
6642;SDS011;3357;48.050;7.800;2023-07-20T11:45:40;4.53;;;1.80;;
6642;SDS011;3357;48.050;7.800;2023-07-20T11:48:05;2.57;;;1.83;;
6642;SDS011;3357;48.050;7.800;2023-07-20T11:50:30;5.00;;;1.70;;
6642;SDS011;3357;48.050;7.800;2023-07-20T11:52:56;3.70;;;1.50;;
6642;SDS011;3357;48.050;7.800;2023-07-20T11:55:22;2.43;;;1.90;;
6642;SDS011;3357;48.050;7.800;2023-07-20T11:58:00;2.23;;;1.50;;
6642;SDS011;3357;48.050;7.800;2023-07-20T12:00:27;1.97;;;1.60;;
6642;SDS011;3357;48.050;7.800;2023-07-20T12:02:53;2.63;;;1.20;;
6642;SDS011;3357;48.050;7.800;2023-07-20T12:05:18;1.63;;;1.53;;
6642;SDS011;3357;48.050;7.800;2023-07-20T12:07:44;6.73;;;1.87;;
6642;SDS011;3357;48.050;7.800;2023-07-20T12:10:12;2.33;;;1.87;;
6642;SDS011;3357;48.050;7.800;2023-07-20T12:12:38;2.47;;;1.60;;
6642;SDS011;3357;48.050;7.800;2023-07-20T12:15:24;2.13;;;1.53;;
6642;SDS011;3357;48.050;7.800;2023-07-20T12:17:58;1.70;;;1.40;;
6642;SDS011;3357;48.050;7.800;2023-07-20T12:20:25;3.47;;;1.40;;
6642;SDS011;3357;48.050;7.800;2023-07-20T12:23:18;1.70;;;1.40;;
6642;SDS011;3357;48.050;7.800;2023-07-20T12:25:46;2.83;;;1.40;;
6642;SDS011;3357;48.050;7.800;2023-07-20T12:30:39;4.40;;;1.40;;
6642;SDS011;3357;48.050;7.800;2023-07-20T12:33:05;3.83;;;1.77;;
6642;SDS011;3357;48.050;7.800;2023-07-20T12:35:31;2.50;;;1.40;;
6642;SDS011;3357;48.050;7.800;2023-07-20T12:37:57;14.47;;;1.30;;
6642;SDS011;3357;48.050;7.800;2023-07-20T12:40:23;1.67;;;1.40;;
6642;SDS011;3357;48.050;7.800;2023-07-20T12:42:48;2.50;;;1.50;;
6642;SDS011;3357;48.050;7.800;2023-07-20T12:45:14;1.53;;;1.43;;
6642;SDS011;3357;48.050;7.800;2023-07-20T12:47:39;4.10;;;1.50;;
6642;SDS011;3357;48.050;7.800;2023-07-20T12:50:06;1.60;;;1.50;;
6642;SDS011;3357;48.050;7.800;2023-07-20T12:52:32;1.43;;;1.33;;
6642;SDS011;3357;48.050;7.800;2023-07-20T12:55:00;1.57;;;1.47;;
6642;SDS011;3357;48.050;7.800;2023-07-20T12:57:26;2.23;;;1.77;;
6642;SDS011;3357;48.050;7.800;2023-07-20T12:59:51;1.43;;;1.33;;
6642;SDS011;3357;48.050;7.800;2023-07-20T13:02:16;1.53;;;1.30;;
6642;SDS011;3357;48.050;7.800;2023-07-20T13:04:42;2.80;;;1.60;;
6642;SDS011;3357;48.050;7.800;2023-07-20T13:07:09;1.40;;;1.23;;
6642;SDS011;3357;48.050;7.800;2023-07-20T13:09:35;1.97;;;1.67;;
6642;SDS011;3357;48.050;7.800;2023-07-20T13:12:00;2.40;;;1.57;;
6642;SDS011;3357;48.050;7.800;2023-07-20T13:14:26;4.83;;;1.57;;
6642;SDS011;3357;48.050;7.800;2023-07-20T13:16:51;2.57;;;1.43;;
6642;SDS011;3357;48.050;7.800;2023-07-20T13:19:17;1.60;;;1.50;;
6642;SDS011;3357;48.050;7.800;2023-07-20T13:21:42;2.50;;;1.73;;
6642;SDS011;3357;48.050;7.800;2023-07-20T13:24:08;3.83;;;1.77;;
6642;SDS011;3357;48.050;7.800;2023-07-20T13:26:33;4.37;;;1.50;;
6642;SDS011;3357;48.050;7.800;2023-07-20T13:28:59;1.13;;;1.03;;
6642;SDS011;3357;48.050;7.800;2023-07-20T13:31:24;2.40;;;1.53;;
6642;SDS011;3357;48.050;7.800;2023-07-20T13:33:49;1.93;;;1.57;;
6642;SDS011;3357;48.050;7.800;2023-07-20T13:36:15;2.40;;;1.43;;
6642;SDS011;3357;48.050;7.800;2023-07-20T13:38:40;2.27;;;1.30;;
6642;SDS011;3357;48.050;7.800;2023-07-20T13:41:05;1.90;;;1.47;;
6642;SDS011;3357;48.050;7.800;2023-07-20T13:43:30;2.80;;;1.40;;
6642;SDS011;3357;48.050;7.800;2023-07-20T13:45:56;2.30;;;1.50;;
6642;SDS011;3357;48.050;7.800;2023-07-20T13:48:21;1.40;;;1.30;;
6642;SDS011;3357;48.050;7.800;2023-07-20T13:50:48;2.70;;;1.50;;
6642;SDS011;3357;48.050;7.800;2023-07-20T13:53:13;2.53;;;1.47;;
6642;SDS011;3357;48.050;7.800;2023-07-20T13:55:39;1.53;;;1.43;;
6642;SDS011;3357;48.050;7.800;2023-07-20T13:58:04;2.70;;;1.23;;
6642;SDS011;3357;48.050;7.800;2023-07-20T14:00:29;1.67;;;1.57;;
6642;SDS011;3357;48.050;7.800;2023-07-20T14:02:58;3.77;;;1.30;;
6642;SDS011;3357;48.050;7.800;2023-07-20T14:05:23;3.67;;;1.47;;
6642;SDS011;3357;48.050;7.800;2023-07-20T14:07:49;8.30;;;1.60;;
6642;SDS011;3357;48.050;7.800;2023-07-20T14:10:15;1.57;;;1.43;;
6642;SDS011;3357;48.050;7.800;2023-07-20T14:12:40;2.50;;;1.60;;
6642;SDS011;3357;48.050;7.800;2023-07-20T14:15:05;4.57;;;1.67;;
6642;SDS011;3357;48.050;7.800;2023-07-20T14:17:31;1.60;;;1.50;;
6642;SDS011;3357;48.050;7.800;2023-07-20T14:19:56;1.67;;;1.40;;
6642;SDS011;3357;48.050;7.800;2023-07-20T14:22:21;7.00;;;1.40;;
6642;SDS011;3357;48.050;7.800;2023-07-20T14:24:48;1.50;;;1.40;;
6642;SDS011;3357;48.050;7.800;2023-07-20T14:27:13;2.70;;;1.80;;
6642;SDS011;3357;48.050;7.800;2023-07-20T14:29:38;2.40;;;1.37;;
6642;SDS011;3357;48.050;7.800;2023-07-20T14:32:03;2.80;;;1.40;;
6642;SDS011;3357;48.050;7.800;2023-07-20T14:34:31;2.30;;;1.30;;
6642;SDS011;3357;48.050;7.800;2023-07-20T14:36:58;2.73;;;1.60;;
6642;SDS011;3357;48.050;7.800;2023-07-20T14:39:24;3.13;;;1.20;;
6642;SDS011;3357;48.050;7.800;2023-07-20T14:41:49;3.23;;;1.50;;
6642;SDS011;3357;48.050;7.800;2023-07-20T14:44:15;2.10;;;1.37;;
6642;SDS011;3357;48.050;7.800;2023-07-20T14:46:40;1.60;;;1.50;;
6642;SDS011;3357;48.050;7.800;2023-07-20T14:49:05;2.57;;;1.20;;
6642;SDS011;3357;48.050;7.800;2023-07-20T14:51:31;2.57;;;1.60;;
6642;SDS011;3357;48.050;7.800;2023-07-20T14:53:58;4.00;;;1.50;;
6642;SDS011;3357;48.050;7.800;2023-07-20T14:56:24;1.60;;;1.30;;
6642;SDS011;3357;48.050;7.800;2023-07-20T14:58:52;1.53;;;1.43;;
6642;SDS011;3357;48.050;7.800;2023-07-20T15:01:17;1.20;;;1.20;;
6642;SDS011;3357;48.050;7.800;2023-07-20T15:03:43;3.13;;;1.73;;
6642;SDS011;3357;48.050;7.800;2023-07-20T15:06:11;2.70;;;1.77;;
6642;SDS011;3357;48.050;7.800;2023-07-20T15:08:36;4.20;;;1.87;;
6642;SDS011;3357;48.050;7.800;2023-07-20T15:11:02;4.00;;;1.30;;
6642;SDS011;3357;48.050;7.800;2023-07-20T15:13:27;3.73;;;1.50;;
6642;SDS011;3357;48.050;7.800;2023-07-20T15:15:53;6.10;;;1.77;;
6642;SDS011;3357;48.050;7.800;2023-07-20T15:18:18;2.70;;;1.40;;
6642;SDS011;3357;48.050;7.800;2023-07-20T15:20:43;1.30;;;1.20;;
6642;SDS011;3357;48.050;7.800;2023-07-20T15:23:09;1.50;;;1.40;;
6642;SDS011;3357;48.050;7.800;2023-07-20T15:25:35;1.50;;;1.40;;
6642;SDS011;3357;48.050;7.800;2023-07-20T15:28:01;2.57;;;1.50;;
6642;SDS011;3357;48.050;7.800;2023-07-20T15:30:27;1.37;;;1.23;;
6642;SDS011;3357;48.050;7.800;2023-07-20T15:32:53;1.40;;;1.30;;
6642;SDS011;3357;48.050;7.800;2023-07-20T15:35:21;3.23;;;1.67;;